Terminal Aerodrome Forecast
Issued by NWS

Current Version | Previous Version | Text Only | Print | Product List | Glossary On
Versions: 1 2 3 4 5 6 7 8 9 10 11 12 13 14 15
000
FTUS46 KOTX 241135
TAFSFF
TAF
KSFF 241135Z 2412/2512 04003KT P6SM SCT090 BKN200
     FM250000 VRB03KT P6SM VCSH BKN040 OVC060
     FM250200 09004KT P6SM -RA SCT029 OVC040
     FM250800 08005KT P6SM SCT040 OVC120=

USA.gov is the U.S. government's official web portal to all federal, state and local government web resources and services.